Latest Weather Observations for Proserpine

IDQ60801

Issued at 11:32 am EST Wednesday 1 July 2015 (issued every 30 minutes, with the page automatically refreshed every 10 minutes)

About weather observations | Map of weather stations | Latest weather observations for QLD | Other Formats
Station Details ID: 033247 Name: PROSERPINE AIRPORT Lat: -20.49 Lon: 148.56 Height: 19.7 m
Data from the previous 72 hours. | See also: Recent months at Proserpine
Date/Time
EST
Temp
°C
App
Temp
°C
Dew
Point
Rel
Hum
%
Delta-T
°C
Wind Press
QNH
hPa
Press
MSL
hPa
Rain
since 9 am
mm
Dir
 
Spd
km/h
Gust
km/h
Spd
kts
Gust
kts
01/11:30am 24.3 21.4 16.0 60 5.0 ESE 26 35 14 19 1022.1 1022.0 0.0
01/11:00am 23.9 20.1 15.7 60 4.9 ESE 30 41 16 22 1022.5 1022.4 0.0
01/10:30am 23.9 21.6 16.7 64 4.4 ESE 24 33 13 18 1022.5 1022.4 0.0
01/10:00am 22.7 20.1 16.9 70 3.5 SE 26 37 14 20 1022.8 1022.7 0.0
01/09:30am 22.0 20.1 16.7 72 3.2 SSE 22 35 12 19 1023.0 1022.9 0.0
01/09:11am 21.3 19.8 16.7 75 2.8 SSE 20 28 11 15 1023.1 1023.0 0.0
01/09:00am 21.5 20.1 16.9 75 2.8 SSE 20 30 11 16 1023.0 1022.9 1.4
01/08:56am 21.3 19.7 16.5 74 2.9 SSE 20 30 11 16 1022.9 1022.8 1.4
01/08:30am 20.1 19.1 16.7 81 2.0 SSE 17 22 9 12 1022.7 1022.6 1.4
01/08:00am 19.2 18.8 16.1 82 1.8 S 13 19 7 10 1022.5 1022.4 1.4
01/07:30am 18.8 17.5 15.9 83 1.7 SSE 17 22 9 12 1022.3 1022.2 1.4
01/07:00am 18.4 17.9 16.0 86 1.4 SSE 13 17 7 9 1022.2 1022.1 1.4
01/06:30am 17.9 17.8 15.9 88 1.2 S 11 15 6 8 1022.1 1022.0 1.4
01/06:00am 18.1 17.6 15.9 87 1.3 SSE 13 17 7 9 1021.8 1021.7 1.4
01/05:48am 18.2 17.7 15.8 86 1.4 SSE 13 19 7 10 1021.6 1021.5 1.4
01/05:30am 18.7 17.8 15.9 84 1.7 SSE 15 20 8 11 1021.5 1021.4 1.4
01/05:10am 19.1 18.0 16.3 84 1.7 SSE 17 20 9 11 1021.4 1021.3 1.4
01/05:00am 19.1 18.1 16.5 85 1.6 SSE 17 24 9 13 1021.4 1021.3 1.4
01/04:30am 18.1 17.7 16.3 89 1.1 SE 13 17 7 9 1021.3 1021.2 1.4
01/04:00am 17.8 18.0 16.8 94 0.6 S 11 15 6 8 1021.4 1021.3 1.4
01/03:30am 16.3 16.3 15.3 94 0.6 S 9 9 5 5 1021.4 1021.3 1.4
01/03:00am 17.0 17.8 15.9 93 0.6 SSE 6 7 3 4 1021.3 1021.2 1.4
01/02:30am 17.4 17.7 16.1 92 0.8 SE 9 11 5 6 1021.1 1021.0 1.4
01/02:00am 18.1 17.8 16.4 90 1.0 SE 13 15 7 8 1021.3 1021.2 1.4
01/01:30am 18.5 18.3 16.7 89 1.1 SSE 13 17 7 9 1021.5 1021.4 1.4
01/01:00am 18.5 17.8 16.5 88 1.2 SSE 15 19 8 10 1021.8 1021.7 1.4
01/12:30am 18.7 19.3 16.7 88 1.2 S 9 13 5 7 1022.0 1021.9 1.4
 
Date/Time
EST
Temp
°C
App
Temp
°C
Dew
Point
Rel
Hum
%
Delta-T
°C
Wind Press
QNH
hPa
Press
MSL
hPa
Rain
since 9 am
mm
Dir
 
Spd
km/h
Gust
km/h
Spd
kts
Gust
kts
30/11:45pm 19.0 18.8 16.6 86 1.4 S 13 19 7 10 1022.4 1022.3 1.4
30/11:30pm 19.2 19.0 16.8 86 1.4 S 13 20 7 11 1022.5 1022.4 1.4
30/11:25pm 19.3 18.8 16.9 86 1.5 S 15 20 8 11 1022.6 1022.5 1.4
30/11:00pm 19.1 18.9 16.7 86 1.4 S 13 19 7 10 1022.8 1022.7 1.4
30/10:30pm 19.1 18.1 16.7 86 1.4 SSE 17 24 9 13 1022.7 1022.6 1.4
30/10:00pm 18.9 19.1 16.7 87 1.3 S 11 15 6 8 1022.9 1022.8 1.4
30/09:30pm 18.4 19.3 16.6 89 1.1 SSW 7 9 4 5 1022.8 1022.7 1.4
30/09:00pm 18.5 18.6 16.5 88 1.2 S 11 13 6 7 1022.8 1022.7 1.4
30/08:30pm 18.4 18.9 16.6 89 1.1 S 9 13 5 7 1022.5 1022.4 1.4
30/08:00pm 18.6 19.7 16.6 88 1.2 SSE 6 7 3 4 1022.3 1022.2 1.4
30/07:30pm 18.9 19.6 17.0 89 1.1 SSE 9 11 5 6 1022.3 1022.2 1.4
30/07:00pm 18.4 19.3 16.7 90 1.0 SE 7 9 4 5 1022.1 1022.0 1.4
30/06:30pm 19.0 19.8 17.3 90 1.0 ESE 9 11 5 6 1021.7 1021.6 1.4
30/06:00pm 19.7 20.6 17.5 87 1.3 ESE 9 13 5 7 1021.5 1021.4 1.4
30/05:30pm 20.5 20.0 16.9 80 2.2 ESE 15 20 8 11 1021.2 1021.1 1.4
30/05:00pm 21.4 20.0 17.0 76 2.7 ESE 20 30 11 16 1021.1 1021.0 1.4
30/04:30pm 22.3 20.8 16.8 71 3.4 ESE 20 30 11 16 1020.8 1020.7 1.4
30/04:00pm 22.5 20.8 17.2 72 3.3 ESE 22 32 12 17 1020.8 1020.7 1.4
30/03:30pm 22.0 20.1 17.6 76 2.7 ESE 24 39 13 21 1020.6 1020.5 1.4
30/03:00pm 21.9 21.6 19.1 84 1.8 ESE 19 30 10 16 1020.7 1020.6 1.4
30/02:30pm 21.1 22.1 19.4 90 1.1 ESE 13 19 7 10 1020.9 1020.8 1.4
30/02:29pm 21.0 22.0 19.5 91 1.0 ESE 13 19 7 10 1020.9 1020.8 1.4
30/02:17pm 20.0 20.4 19.0 94 0.6 ESE 15 20 8 11 1020.9 1020.8 1.4
30/02:00pm 18.6 17.0 17.4 93 0.7 ESE 22 33 12 18 1021.4 1021.3 1.2
30/01:47pm 19.3 15.8 17.8 91 0.9 ESE 33 44 18 24 1021.3 1021.2 0.4
30/01:45pm 19.4 15.7 17.4 88 1.2 ESE 33 44 18 24 1021.2 1021.1 0.2
30/01:30pm 23.3 22.5 18.0 72 3.3 ESE 19 30 10 16 1021.1 1021.0 0.0
30/01:00pm 21.5 19.8 18.1 81 2.1 ENE 24 35 13 19 1021.5 1021.4 0.0
30/12:30pm 24.5 20.7 16.7 61 4.8 SE 32 41 17 22 1021.6 1021.5 0.0
30/12:00pm 24.2 20.8 17.7 67 4.0 SE 32 46 17 25 1022.1 1022.0 0.0
30/11:30am 24.0 20.7 18.0 69 3.8 SE 32 43 17 23 1022.4 1022.3 0.0
30/11:00am 23.0 19.0 16.8 68 3.8 SE 33 44 18 24 1022.8 1022.7 0.0
30/10:30am 24.1 21.3 19.0 73 3.2 SE 32 43 17 23 1022.8 1022.7 0.0
30/10:00am 23.8 21.3 18.9 74 3.1 SE 30 43 16 23 1022.9 1022.8 0.0
30/09:39am 22.7 20.2 18.0 75 2.9 SE 28 39 15 21 1023.0 1022.9 0.0
30/09:30am 22.4 23.0 19.4 83 1.9 SSE 15 20 8 11 1022.9 1022.8 0.0
30/09:00am 21.7 20.9 18.5 82 2.0 SE 20 32 11 17 1023.0 1022.9 0.6
30/08:30am 20.1 18.7 18.0 88 1.3 SE 22 30 12 16 1022.8 1022.7 0.6
30/08:28am 20.1 18.7 18.0 88 1.3 SE 22 30 12 16 1022.7 1022.6 0.6
30/08:14am 19.9 19.1 18.4 91 0.9 SSE 20 30 11 16 1022.6 1022.5 0.6
30/08:00am 19.5 19.2 18.2 92 0.8 SSE 17 20 9 11 1022.3 1022.2 0.6
30/07:30am 19.0 18.5 17.8 93 0.7 S 17 24 9 13 1022.0 1021.9 0.6
30/07:11am 18.8 19.0 17.6 93 0.7 SSE 13 19 7 10 1021.8 1021.7 0.6
30/07:00am 18.7 19.6 17.5 93 0.7 S 9 13 5 7 1021.7 1021.6 0.6
30/06:56am 18.7 19.6 17.5 93 0.7 S 9 15 5 8 1021.7 1021.6 0.6
30/06:30am 19.0 19.6 17.8 93 0.7 SSE 11 15 6 8 1021.4 1021.3 0.6
30/06:00am 18.8 18.9 17.5 92 0.8 S 13 15 7 8 1021.3 1021.2 0.6
30/05:30am 19.7 18.2 17.8 89 1.2 SE 22 35 12 19 1020.8 1020.7 0.6
30/05:00am 19.9 19.2 18.2 90 1.1 SE 19 24 10 13 1020.8 1020.7 0.6
30/04:30am 19.5 19.9 18.2 92 0.8 SSE 13 24 7 13 1020.5 1020.4 0.6
30/04:00am 19.3 19.6 17.8 91 0.9 SSE 13 19 7 10 1020.6 1020.5 0.6
30/03:30am 19.7 20.0 18.0 90 1.0 S 13 17 7 9 1020.9 1020.8 0.6
30/03:00am 19.6 19.8 17.7 89 1.2 S 13 17 7 9 1021.0 1020.9 0.6
30/02:30am 19.7 19.8 17.5 87 1.3 SSE 13 15 7 8 1021.1 1021.0 0.6
30/02:00am 20.5 19.7 18.1 86 1.5 SE 19 24 10 13 1021.2 1021.1 0.6
30/01:30am 20.4 19.4 17.6 84 1.7 SE 19 24 10 13 1021.7 1021.6 0.6
30/01:00am 20.7 19.7 17.5 82 2.0 SE 19 28 10 15 1021.9 1021.8 0.6
30/12:30am 20.7 19.5 17.5 82 2.0 SE 20 28 11 15 1022.0 1021.9 0.6
30/12:00am 20.7 19.6 17.7 83 1.8 SE 20 28 11 15 1022.1 1022.0 0.6
 
Date/Time
EST
Temp
°C
App
Temp
°C
Dew
Point
Rel
Hum
%
Delta-T
°C
Wind Press
QNH
hPa
Press
MSL
hPa
Rain
since 9 am
mm
Dir
 
Spd
km/h
Gust
km/h
Spd
kts
Gust
kts
29/11:30pm 20.5 19.3 17.5 83 1.8 SE 20 26 11 14 1022.3 1022.2 0.6
29/11:00pm 20.7 19.1 17.5 82 2.0 SE 22 30 12 16 1022.3 1022.2 0.6
29/10:30pm 20.8 19.4 18.0 84 1.7 SE 22 30 12 16 1022.3 1022.2 0.6
29/10:00pm 20.6 19.6 18.0 85 1.6 SE 20 28 11 15 1022.3 1022.2 0.6
29/09:30pm 20.3 19.6 18.2 88 1.3 SE 19 24 10 13 1022.4 1022.3 0.6
29/09:22pm 19.9 20.3 18.2 90 1.1 SE 13 20 7 11 1022.5 1022.4 0.6
29/09:17pm 19.7 20.2 18.4 92 0.8 ESE 13 17 7 9 1022.5 1022.4 0.6
29/09:03pm 20.0 19.2 18.1 89 1.2 SE 19 28 10 15 1022.3 1022.2 0.6
29/09:00pm 20.0 19.0 18.0 88 1.2 SE 20 28 11 15 1022.5 1022.4 0.0
29/08:30pm 21.1 20.0 17.7 81 2.1 SE 20 28 11 15 1022.2 1022.1 0.0
29/08:00pm 21.3 19.7 17.5 79 2.3 SE 22 30 12 16 1022.2 1022.1 0.0
29/07:30pm 21.4 18.9 17.2 77 2.6 SE 26 35 14 19 1022.1 1022.0 0.0
29/07:00pm 21.6 19.5 17.2 76 2.7 SE 24 33 13 18 1021.8 1021.7 0.0
29/06:30pm 21.7 19.7 17.3 76 2.7 SE 24 32 13 17 1021.7 1021.6 0.0
29/06:00pm 21.7 19.3 17.3 76 2.7 SE 26 33 14 18 1021.5 1021.4 0.0
29/05:30pm 21.9 19.1 17.3 75 2.8 SE 28 37 15 20 1021.3 1021.2 0.0
29/05:00pm 22.1 19.3 17.2 74 3.0 SE 28 41 15 22 1021.2 1021.1 0.0
29/04:30pm 22.2 19.3 17.1 73 3.1 SE 28 39 15 21 1021.0 1020.9 0.0
29/04:00pm 22.6 18.8 17.3 72 3.3 SE 33 46 18 25 1020.8 1020.7 0.0
29/03:30pm 22.9 19.0 16.9 69 3.7 SE 33 48 18 26 1020.7 1020.6 0.0
29/03:00pm 23.3 19.3 16.8 67 4.0 ESE 33 48 18 26 1020.8 1020.7 0.0
29/02:30pm 24.4 20.2 17.1 63 4.5 ESE 35 48 19 26 1021.0 1020.9 0.0
29/02:00pm 24.8 20.7 18.3 67 4.1 SE 37 50 20 27 1021.1 1021.0 0.0
29/01:30pm 24.0 19.2 16.5 63 4.6 SE 37 52 20 28 1021.3 1021.2 0.0
29/01:24pm 25.1 21.6 17.8 64 4.6 SE 33 52 18 28 1021.4 1021.3 0.0
29/01:00pm 24.8 20.5 17.8 65 4.4 SE 37 54 20 29 1021.7 1021.6 0.0
29/12:55pm 24.7 20.8 17.9 66 4.3 ESE 35 54 19 29 1021.8 1021.7 0.0
29/12:30pm 24.3 20.1 18.0 68 4.0 SE 37 52 20 28 1022.1 1022.0 0.0
29/12:16pm 24.1 19.3 17.6 67 4.1 SE 39 57 21 31 1022.3 1022.2 0.0
29/12:00pm 24.4 19.8 18.1 68 3.9 SE 39 52 21 28 1022.6 1022.5 0.0
29/11:30am 23.9 19.3 17.9 69 3.8 SE 39 50 21 27 1023.0 1022.9 0.0
29/11:00am 23.0 19.1 17.0 69 3.7 SE 33 50 18 27 1023.3 1023.2 0.0
29/10:30am 22.3 18.6 17.4 74 3.0 SE 33 50 18 27 1023.6 1023.5 0.0
29/10:00am 22.8 18.8 17.5 72 3.3 SE 35 48 19 26 1023.8 1023.7 0.0
29/09:30am 21.7 19.1 17.9 79 2.4 SE 28 43 15 23 1023.9 1023.8 0.0
29/09:00am 20.7 19.4 18.1 85 1.6 SSE 22 30 12 16 1023.9 1023.8 2.6
29/08:30am 19.6 17.7 17.6 88 1.2 SSE 24 30 13 16 1023.6 1023.5 2.6
29/08:00am 19.1 17.8 17.2 89 1.1 SSE 20 33 11 18 1023.6 1023.5 2.6
29/07:30am 18.8 17.4 17.1 90 1.0 S 20 28 11 15 1023.4 1023.3 2.6
29/07:00am 18.6 17.5 17.3 92 0.8 SSE 19 26 10 14 1023.1 1023.0 2.6
29/06:30am 18.4 17.6 17.2 93 0.7 SSE 17 24 9 13 1022.8 1022.7 2.6
29/06:00am 18.4 17.3 17.4 94 0.6 SSE 19 28 10 15 1022.5 1022.4 2.6
29/05:36am 18.5 17.3 17.5 94 0.6 SSE 20 28 11 15 1022.2 1022.1 2.6
29/05:30am 18.4 17.2 17.4 94 0.6 SSE 20 26 11 14 1022.1 1022.0 2.6
29/05:15am 18.4 17.2 17.6 95 0.5 SSE 20 30 11 16 1022.0 1021.9 2.6
29/05:04am 18.4 17.8 17.6 95 0.5 SSE 17 24 9 13 1022.1 1022.0 2.4
29/05:00am 18.4 17.8 17.6 95 0.5 SSE 17 22 9 12 1022.1 1022.0 2.4
29/04:38am 18.5 17.3 17.5 94 0.6 SSE 20 28 11 15 1021.9 1021.8 2.4
29/04:30am 18.5 17.4 17.7 95 0.5 SSE 20 28 11 15 1021.8 1021.7 2.4
29/04:18am 18.6 17.4 17.6 94 0.6 SSE 20 28 11 15 1021.9 1021.8 2.4
29/04:14am 18.7 17.1 17.5 93 0.7 SSE 22 28 12 15 1021.9 1021.8 2.2
29/04:03am 18.9 17.7 17.6 92 0.8 SSE 20 28 11 15 1021.6 1021.5 2.2
29/04:00am 18.8 17.6 17.5 92 0.8 SSE 20 26 11 14 1021.7 1021.6 2.2
29/03:36am 19.0 17.8 17.5 91 0.9 SSE 20 33 11 18 1021.8 1021.7 2.2
29/03:30am 19.0 18.0 17.5 91 0.9 SSE 19 30 10 16 1021.8 1021.7 2.2
29/03:11am 19.3 17.6 17.3 88 1.2 SSE 22 35 12 19 1021.7 1021.6 2.2
29/03:08am 19.4 17.7 17.2 87 1.3 SSE 22 33 12 18 1021.7 1021.6 2.2
29/03:00am 19.9 18.1 16.9 83 1.8 SSE 22 33 12 18 1021.7 1021.6 2.0
29/02:30am 19.9 18.2 17.1 84 1.7 SSE 22 30 12 16 1021.7 1021.6 2.0
29/02:00am 19.8 18.5 17.2 85 1.6 SSE 20 26 11 14 1022.1 1022.0 2.0
29/01:30am 19.6 18.3 17.2 86 1.5 SSE 20 28 11 15 1022.2 1022.1 2.0
29/01:00am 19.8 18.3 17.6 87 1.3 SSE 22 32 12 17 1022.3 1022.2 2.0
29/12:30am 19.5 18.3 17.6 89 1.2 SSE 20 28 11 15 1022.5 1022.4 2.0
29/12:00am 19.1 18.6 17.9 93 0.7 SSE 17 20 9 11 1022.8 1022.7 2.0
 
Date/Time
EST
Temp
°C
App
Temp
°C
Dew
Point
Rel
Hum
%
Delta-T
°C
Wind Press
QNH
hPa
Press
MSL
hPa
Rain
since 9 am
mm
Dir
 
Spd
km/h
Gust
km/h
Spd
kts
Gust
kts
28/11:57pm 19.1 18.6 17.9 93 0.7 SSE 17 24 9 13 1022.8 1022.7 2.0
28/11:44pm 19.1 18.3 18.1 94 0.6 SSE 19 26 10 14 1023.1 1023.0 2.0
28/11:30pm 19.2 17.2 18.4 95 0.5 SE 26 39 14 21 1023.3 1023.2 2.0
28/11:14pm 19.5 18.8 18.2 92 0.8 SE 19 26 10 14 1023.4 1023.3 0.8
28/11:07pm 19.6 19.2 18.1 91 0.9 SE 17 24 9 13 1023.3 1023.2 0.6
28/11:00pm 19.4 18.6 18.1 92 0.8 SE 19 26 10 14 1023.4 1023.3 0.6
28/10:51pm 19.4 18.6 18.4 94 0.6 SE 20 28 11 15 1023.4 1023.3 0.6
28/10:30pm 19.8 17.4 18.3 91 0.9 SE 28 37 15 20 1023.6 1023.5 0.2
28/10:27pm 20.0 17.9 18.1 89 1.2 SE 26 37 14 20 1023.6 1023.5 0.0
28/10:24pm 20.2 18.5 18.0 87 1.4 SE 24 32 13 17 1023.6 1023.5 0.0
28/10:00pm 20.8 18.1 17.6 82 2.0 SE 28 39 15 21 1023.5 1023.4 0.0
28/09:37pm 21.2 18.4 17.4 79 2.3 SE 28 48 15 26 1023.4 1023.3 0.0
28/09:30pm 21.1 17.9 17.3 79 2.3 SE 30 43 16 23 1023.4 1023.3 0.0
28/09:00pm 21.2 18.0 17.2 78 2.4 SE 30 43 16 23 1023.5 1023.4 0.0
28/08:30pm 21.2 18.4 17.4 79 2.3 SE 28 35 15 19 1023.4 1023.3 0.0
28/08:00pm 21.3 17.9 17.7 80 2.2 SE 32 41 17 22 1023.3 1023.2 0.0
28/07:30pm 21.4 19.5 17.6 79 2.3 SE 24 35 13 19 1023.2 1023.1 0.0
28/07:00pm 21.4 19.4 17.4 78 2.5 SSE 24 35 13 19 1023.0 1022.9 0.0
28/06:30pm 21.4 19.3 17.2 77 2.6 SE 24 33 13 18 1022.7 1022.6 0.0
28/06:00pm 21.4 18.9 17.0 76 2.7 SE 26 43 14 23 1022.6 1022.5 0.0
28/05:30pm 21.5 18.3 17.3 77 2.6 SE 30 43 16 23 1022.3 1022.2 0.0
28/05:00pm 21.8 18.7 17.4 76 2.7 SE 30 43 16 23 1022.1 1022.0 0.0
28/04:30pm 22.0 19.2 17.2 74 2.9 SE 28 41 15 22 1021.7 1021.6 0.0
28/04:26pm 22.0 19.2 17.4 75 2.8 SE 28 46 15 25 1021.8 1021.7 0.0
28/04:00pm 22.1 18.3 17.2 74 3.0 SE 33 41 18 22 1021.6 1021.5 0.0
28/03:30pm 22.4 19.3 17.5 74 3.0 SE 30 41 16 22 1021.9 1021.8 0.0
28/03:00pm 23.0 18.6 17.5 71 3.4 SE 37 50 20 27 1021.8 1021.7 0.0
28/02:30pm 23.3 19.2 17.3 69 3.7 SE 35 48 19 26 1021.8 1021.7 0.0
28/02:13pm 22.9 18.8 17.4 71 3.4 SE 35 54 19 29 1021.9 1021.8 0.0
28/02:00pm 23.1 18.2 17.3 70 3.6 SE 39 50 21 27 1021.8 1021.7 0.0
28/01:40pm 23.8 20.2 17.3 67 4.0 SE 32 52 17 28 1021.7 1021.6 0.0
28/01:30pm 23.7 20.4 18.4 72 3.3 SE 33 44 18 24 1022.0 1021.9 0.0
28/01:05pm 24.9 21.0 17.9 65 4.4 ESE 35 56 19 30 1021.9 1021.8 0.0
28/01:00pm 24.3 20.6 17.5 66 4.2 SE 33 48 18 26 1022.1 1022.0 0.0
28/12:44pm 23.3 19.2 17.3 69 3.7 SE 35 54 19 29 1022.4 1022.3 0.0
28/12:30pm 23.0 19.3 17.0 69 3.7 SE 32 46 17 25 1022.5 1022.4 0.0
28/12:00pm 22.9 18.8 17.4 71 3.4 ESE 35 46 19 25 1023.0 1022.9 0.0

Other Formats:

Comma delimited format used in spreadsheet applications
http://www.bom.gov.au/fwo/IDQ60801/IDQ60801.94365.axf

JavaScript Object Notation format (JSON) in row-major order
http://www.bom.gov.au/fwo/IDQ60801/IDQ60801.94365.json